sensor_id;sensor_type;location;lat;lon;timestamp;P1;durP1;ratioP1;P2;durP2;ratioP2
66485;SDS011;53303;47.476;8.084;2023-10-31T00:01:51;7.25;;;1.38;;
66485;SDS011;53303;47.476;8.084;2023-10-31T00:04:16;8.15;;;1.25;;
66485;SDS011;53303;47.476;8.084;2023-10-31T00:06:42;6.85;;;1.50;;
66485;SDS011;53303;47.476;8.084;2023-10-31T00:09:07;6.18;;;1.10;;
66485;SDS011;53303;47.476;8.084;2023-10-31T00:11:33;7.80;;;1.40;;
66485;SDS011;53303;47.476;8.084;2023-10-31T00:13:59;7.20;;;1.42;;
66485;SDS011;53303;47.476;8.084;2023-10-31T00:16:24;5.50;;;1.25;;
66485;SDS011;53303;47.476;8.084;2023-10-31T00:18:52;7.88;;;1.42;;
66485;SDS011;53303;47.476;8.084;2023-10-31T00:21:18;6.32;;;1.50;;
66485;SDS011;53303;47.476;8.084;2023-10-31T00:23:44;9.10;;;1.30;;
66485;SDS011;53303;47.476;8.084;2023-10-31T00:26:13;6.95;;;1.08;;
66485;SDS011;53303;47.476;8.084;2023-10-31T00:28:41;7.32;;;1.33;;
66485;SDS011;53303;47.476;8.084;2023-10-31T00:31:07;5.82;;;1.23;;
66485;SDS011;53303;47.476;8.084;2023-10-31T00:33:34;5.32;;;1.17;;
66485;SDS011;53303;47.476;8.084;2023-10-31T00:35:59;5.47;;;1.20;;
66485;SDS011;53303;47.476;8.084;2023-10-31T00:38:25;6.45;;;1.10;;
66485;SDS011;53303;47.476;8.084;2023-10-31T00:40:50;7.60;;;1.40;;
66485;SDS011;53303;47.476;8.084;2023-10-31T00:43:16;8.30;;;1.25;;
66485;SDS011;53303;47.476;8.084;2023-10-31T00:45:44;7.72;;;1.58;;
66485;SDS011;53303;47.476;8.084;2023-10-31T00:48:10;5.32;;;1.00;;
66485;SDS011;53303;47.476;8.084;2023-10-31T00:50:35;4.85;;;1.10;;
66485;SDS011;53303;47.476;8.084;2023-10-31T00:53:01;4.10;;;1.13;;
66485;SDS011;53303;47.476;8.084;2023-10-31T00:55:26;6.47;;;1.30;;
66485;SDS011;53303;47.476;8.084;2023-10-31T00:57:52;8.77;;;1.23;;
66485;SDS011;53303;47.476;8.084;2023-10-31T01:00:17;5.18;;;1.23;;
66485;SDS011;53303;47.476;8.084;2023-10-31T01:02:43;6.50;;;1.20;;
66485;SDS011;53303;47.476;8.084;2023-10-31T01:05:08;6.50;;;1.25;;
66485;SDS011;53303;47.476;8.084;2023-10-31T01:07:35;8.18;;;1.48;;
66485;SDS011;53303;47.476;8.084;2023-10-31T01:10:03;5.90;;;1.20;;
66485;SDS011;53303;47.476;8.084;2023-10-31T01:12:30;4.95;;;1.00;;
66485;SDS011;53303;47.476;8.084;2023-10-31T01:14:56;6.13;;;1.23;;
66485;SDS011;53303;47.476;8.084;2023-10-31T01:17:21;6.10;;;1.23;;
66485;SDS011;53303;47.476;8.084;2023-10-31T01:19:47;6.78;;;1.10;;
66485;SDS011;53303;47.476;8.084;2023-10-31T01:22:12;5.45;;;1.10;;
66485;SDS011;53303;47.476;8.084;2023-10-31T01:24:40;5.70;;;1.70;;
66485;SDS011;53303;47.476;8.084;2023-10-31T01:27:05;4.55;;;1.25;;
66485;SDS011;53303;47.476;8.084;2023-10-31T01:29:31;3.83;;;1.00;;
66485;SDS011;53303;47.476;8.084;2023-10-31T01:31:56;5.93;;;1.08;;
66485;SDS011;53303;47.476;8.084;2023-10-31T01:34:22;6.22;;;1.23;;
66485;SDS011;53303;47.476;8.084;2023-10-31T01:36:47;4.65;;;1.00;;
66485;SDS011;53303;47.476;8.084;2023-10-31T01:39:13;3.92;;;1.10;;
66485;SDS011;53303;47.476;8.084;2023-10-31T01:41:40;4.45;;;1.10;;
66485;SDS011;53303;47.476;8.084;2023-10-31T01:44:11;3.47;;;1.00;;
66485;SDS011;53303;47.476;8.084;2023-10-31T01:46:39;4.95;;;1.13;;
66485;SDS011;53303;47.476;8.084;2023-10-31T01:49:04;3.42;;;0.82;;
66485;SDS011;53303;47.476;8.084;2023-10-31T01:51:30;4.25;;;1.00;;
66485;SDS011;53303;47.476;8.084;2023-10-31T01:53:55;4.80;;;1.00;;
66485;SDS011;53303;47.476;8.084;2023-10-31T01:56:22;4.32;;;1.20;;
66485;SDS011;53303;47.476;8.084;2023-10-31T01:58:48;4.30;;;0.93;;
66485;SDS011;53303;47.476;8.084;2023-10-31T02:01:14;3.58;;;1.00;;
66485;SDS011;53303;47.476;8.084;2023-10-31T02:03:40;4.40;;;1.08;;
66485;SDS011;53303;47.476;8.084;2023-10-31T02:06:05;4.75;;;1.23;;
66485;SDS011;53303;47.476;8.084;2023-10-31T02:08:33;5.20;;;1.00;;
66485;SDS011;53303;47.476;8.084;2023-10-31T02:10:59;5.93;;;1.08;;
66485;SDS011;53303;47.476;8.084;2023-10-31T02:13:24;4.82;;;1.23;;
66485;SDS011;53303;47.476;8.084;2023-10-31T02:15:50;3.95;;;0.95;;
66485;SDS011;53303;47.476;8.084;2023-10-31T02:18:15;5.55;;;1.30;;
66485;SDS011;53303;47.476;8.084;2023-10-31T02:20:41;2.70;;;1.00;;
66485;SDS011;53303;47.476;8.084;2023-10-31T02:23:11;4.43;;;1.00;;
66485;SDS011;53303;47.476;8.084;2023-10-31T02:25:39;5.25;;;1.20;;
66485;SDS011;53303;47.476;8.084;2023-10-31T02:28:04;4.43;;;1.00;;
66485;SDS011;53303;47.476;8.084;2023-10-31T02:30:33;5.22;;;0.95;;
66485;SDS011;53303;47.476;8.084;2023-10-31T02:33:00;4.20;;;1.00;;
66485;SDS011;53303;47.476;8.084;2023-10-31T02:35:26;4.30;;;0.90;;
66485;SDS011;53303;47.476;8.084;2023-10-31T02:37:52;4.25;;;0.85;;
66485;SDS011;53303;47.476;8.084;2023-10-31T02:40:17;4.45;;;1.00;;
66485;SDS011;53303;47.476;8.084;2023-10-31T02:42:43;5.55;;;0.90;;
66485;SDS011;53303;47.476;8.084;2023-10-31T02:45:09;4.75;;;0.90;;
66485;SDS011;53303;47.476;8.084;2023-10-31T02:47:34;4.97;;;1.08;;
66485;SDS011;53303;47.476;8.084;2023-10-31T02:50:00;3.40;;;0.80;;
66485;SDS011;53303;47.476;8.084;2023-10-31T02:52:25;5.35;;;1.13;;
66485;SDS011;53303;47.476;8.084;2023-10-31T02:54:51;4.97;;;0.90;;
66485;SDS011;53303;47.476;8.084;2023-10-31T02:57:18;5.45;;;0.98;;
66485;SDS011;53303;47.476;8.084;2023-10-31T02:59:44;7.43;;;1.05;;
66485;SDS011;53303;47.476;8.084;2023-10-31T03:02:09;3.38;;;1.08;;
66485;SDS011;53303;47.476;8.084;2023-10-31T03:04:36;3.75;;;1.00;;
66485;SDS011;53303;47.476;8.084;2023-10-31T03:07:01;3.80;;;1.02;;
66485;SDS011;53303;47.476;8.084;2023-10-31T03:09:27;4.63;;;1.00;;
66485;SDS011;53303;47.476;8.084;2023-10-31T03:11:52;4.78;;;1.00;;
66485;SDS011;53303;47.476;8.084;2023-10-31T03:14:18;6.72;;;1.10;;
66485;SDS011;53303;47.476;8.084;2023-10-31T03:16:43;3.88;;;0.82;;
66485;SDS011;53303;47.476;8.084;2023-10-31T03:19:09;4.28;;;0.85;;
66485;SDS011;53303;47.476;8.084;2023-10-31T03:21:36;4.07;;;0.90;;
66485;SDS011;53303;47.476;8.084;2023-10-31T03:24:02;6.22;;;1.00;;
66485;SDS011;53303;47.476;8.084;2023-10-31T03:26:27;4.70;;;0.90;;
66485;SDS011;53303;47.476;8.084;2023-10-31T03:28:53;3.50;;;1.02;;
66485;SDS011;53303;47.476;8.084;2023-10-31T03:31:22;5.30;;;0.90;;
66485;SDS011;53303;47.476;8.084;2023-10-31T03:33:48;3.83;;;0.98;;
66485;SDS011;53303;47.476;8.084;2023-10-31T03:36:14;4.60;;;1.20;;
66485;SDS011;53303;47.476;8.084;2023-10-31T03:38:41;4.18;;;0.95;;
66485;SDS011;53303;47.476;8.084;2023-10-31T03:41:07;6.30;;;0.90;;
66485;SDS011;53303;47.476;8.084;2023-10-31T03:43:33;4.20;;;0.80;;
66485;SDS011;53303;47.476;8.084;2023-10-31T03:46:01;6.53;;;0.95;;
66485;SDS011;53303;47.476;8.084;2023-10-31T03:48:27;5.05;;;1.20;;
66485;SDS011;53303;47.476;8.084;2023-10-31T03:50:52;4.18;;;0.90;;
66485;SDS011;53303;47.476;8.084;2023-10-31T03:53:18;4.38;;;0.80;;
66485;SDS011;53303;47.476;8.084;2023-10-31T03:55:44;6.60;;;1.10;;
66485;SDS011;53303;47.476;8.084;2023-10-31T03:58:09;3.75;;;0.90;;
66485;SDS011;53303;47.476;8.084;2023-10-31T04:00:35;4.00;;;1.00;;
66485;SDS011;53303;47.476;8.084;2023-10-31T04:03:00;4.13;;;0.90;;
66485;SDS011;53303;47.476;8.084;2023-10-31T04:05:26;2.10;;;0.70;;
66485;SDS011;53303;47.476;8.084;2023-10-31T04:07:54;5.85;;;1.15;;
66485;SDS011;53303;47.476;8.084;2023-10-31T04:10:21;2.40;;;0.95;;
66485;SDS011;53303;47.476;8.084;2023-10-31T04:12:50;5.07;;;0.88;;
66485;SDS011;53303;47.476;8.084;2023-10-31T04:15:18;3.25;;;0.98;;
66485;SDS011;53303;47.476;8.084;2023-10-31T04:17:45;4.65;;;1.15;;
66485;SDS011;53303;47.476;8.084;2023-10-31T04:20:11;3.13;;;0.85;;
66485;SDS011;53303;47.476;8.084;2023-10-31T04:22:36;3.65;;;0.80;;
66485;SDS011;53303;47.476;8.084;2023-10-31T04:25:02;4.28;;;1.02;;
66485;SDS011;53303;47.476;8.084;2023-10-31T04:27:28;4.43;;;0.90;;
66485;SDS011;53303;47.476;8.084;2023-10-31T04:29:53;4.40;;;1.00;;
66485;SDS011;53303;47.476;8.084;2023-10-31T04:32:19;2.92;;;0.68;;
66485;SDS011;53303;47.476;8.084;2023-10-31T04:34:44;3.05;;;0.90;;
66485;SDS011;53303;47.476;8.084;2023-10-31T04:37:12;4.97;;;0.95;;
66485;SDS011;53303;47.476;8.084;2023-10-31T04:39:37;6.75;;;1.02;;
66485;SDS011;53303;47.476;8.084;2023-10-31T04:42:05;4.00;;;1.10;;
66485;SDS011;53303;47.476;8.084;2023-10-31T04:44:31;2.95;;;0.85;;
66485;SDS011;53303;47.476;8.084;2023-10-31T04:46:56;3.22;;;0.80;;
66485;SDS011;53303;47.476;8.084;2023-10-31T04:49:22;3.92;;;1.00;;
66485;SDS011;53303;47.476;8.084;2023-10-31T04:51:47;2.70;;;0.70;;
66485;SDS011;53303;47.476;8.084;2023-10-31T04:54:13;2.75;;;0.80;;
66485;SDS011;53303;47.476;8.084;2023-10-31T04:56:39;4.88;;;0.90;;
66485;SDS011;53303;47.476;8.084;2023-10-31T04:59:07;5.10;;;1.15;;
66485;SDS011;53303;47.476;8.084;2023-10-31T05:01:32;2.95;;;0.95;;
66485;SDS011;53303;47.476;8.084;2023-10-31T05:03:58;4.28;;;1.00;;
66485;SDS011;53303;47.476;8.084;2023-10-31T05:06:23;3.88;;;0.80;;
66485;SDS011;53303;47.476;8.084;2023-10-31T05:08:49;3.80;;;1.10;;
66485;SDS011;53303;47.476;8.084;2023-10-31T05:11:17;3.53;;;1.02;;
66485;SDS011;53303;47.476;8.084;2023-10-31T05:13:44;3.53;;;0.90;;
66485;SDS011;53303;47.476;8.084;2023-10-31T05:16:11;2.83;;;1.05;;
66485;SDS011;53303;47.476;8.084;2023-10-31T05:18:37;2.92;;;0.90;;
66485;SDS011;53303;47.476;8.084;2023-10-31T05:21:03;3.47;;;0.82;;
66485;SDS011;53303;47.476;8.084;2023-10-31T05:23:29;4.88;;;0.88;;
66485;SDS011;53303;47.476;8.084;2023-10-31T05:25:55;5.18;;;0.90;;
66485;SDS011;53303;47.476;8.084;2023-10-31T05:28:20;4.40;;;0.70;;
66485;SDS011;53303;47.476;8.084;2023-10-31T05:30:50;7.22;;;1.05;;
66485;SDS011;53303;47.476;8.084;2023-10-31T05:33:16;3.22;;;0.80;;
66485;SDS011;53303;47.476;8.084;2023-10-31T05:35:42;7.38;;;0.95;;
66485;SDS011;53303;47.476;8.084;2023-10-31T05:38:10;6.68;;;0.88;;
66485;SDS011;53303;47.476;8.084;2023-10-31T05:40:35;2.38;;;0.60;;
66485;SDS011;53303;47.476;8.084;2023-10-31T05:43:01;4.38;;;0.90;;
66485;SDS011;53303;47.476;8.084;2023-10-31T05:45:28;2.28;;;0.73;;
66485;SDS011;53303;47.476;8.084;2023-10-31T05:47:54;3.90;;;1.10;;
66485;SDS011;53303;47.476;8.084;2023-10-31T05:50:19;3.20;;;1.00;;
66485;SDS011;53303;47.476;8.084;2023-10-31T05:52:44;6.15;;;0.90;;
66485;SDS011;53303;47.476;8.084;2023-10-31T05:55:10;3.85;;;0.88;;
66485;SDS011;53303;47.476;8.084;2023-10-31T05:57:35;10.25;;;1.15;;
66485;SDS011;53303;47.476;8.084;2023-10-31T06:00:01;8.10;;;1.00;;
66485;SDS011;53303;47.476;8.084;2023-10-31T06:02:26;3.45;;;1.00;;
66485;SDS011;53303;47.476;8.084;2023-10-31T06:04:52;3.60;;;1.08;;
66485;SDS011;53303;47.476;8.084;2023-10-31T06:07:17;2.92;;;0.85;;
66485;SDS011;53303;47.476;8.084;2023-10-31T06:09:42;3.53;;;1.00;;
66485;SDS011;53303;47.476;8.084;2023-10-31T06:12:10;3.22;;;0.80;;
66485;SDS011;53303;47.476;8.084;2023-10-31T06:14:38;5.88;;;1.00;;
66485;SDS011;53303;47.476;8.084;2023-10-31T06:17:05;3.80;;;0.90;;
66485;SDS011;53303;47.476;8.084;2023-10-31T06:19:37;3.92;;;1.10;;
66485;SDS011;53303;47.476;8.084;2023-10-31T06:22:02;3.17;;;0.65;;
66485;SDS011;53303;47.476;8.084;2023-10-31T06:24:28;4.90;;;1.10;;
66485;SDS011;53303;47.476;8.084;2023-10-31T06:26:53;3.83;;;1.05;;
66485;SDS011;53303;47.476;8.084;2023-10-31T06:29:19;4.57;;;0.95;;
66485;SDS011;53303;47.476;8.084;2023-10-31T06:31:44;3.83;;;0.80;;
66485;SDS011;53303;47.476;8.084;2023-10-31T06:34:10;2.88;;;0.70;;
66485;SDS011;53303;47.476;8.084;2023-10-31T06:36:37;5.60;;;1.10;;
66485;SDS011;53303;47.476;8.084;2023-10-31T06:39:03;4.82;;;0.80;;
66485;SDS011;53303;47.476;8.084;2023-10-31T06:41:29;3.60;;;0.82;;
66485;SDS011;53303;47.476;8.084;2023-10-31T06:43:57;4.25;;;0.93;;
66485;SDS011;53303;47.476;8.084;2023-10-31T06:46:25;4.15;;;0.77;;
66485;SDS011;53303;47.476;8.084;2023-10-31T06:48:53;6.03;;;1.00;;
66485;SDS011;53303;47.476;8.084;2023-10-31T06:51:18;7.22;;;1.42;;
66485;SDS011;53303;47.476;8.084;2023-10-31T06:53:44;5.57;;;0.68;;
66485;SDS011;53303;47.476;8.084;2023-10-31T06:56:10;5.10;;;0.70;;
66485;SDS011;53303;47.476;8.084;2023-10-31T06:58:35;3.28;;;0.73;;
66485;SDS011;53303;47.476;8.084;2023-10-31T07:01:01;7.15;;;1.42;;
66485;SDS011;53303;47.476;8.084;2023-10-31T07:03:26;6.82;;;1.17;;
66485;SDS011;53303;47.476;8.084;2023-10-31T07:05:51;4.45;;;0.82;;
66485;SDS011;53303;47.476;8.084;2023-10-31T07:08:21;4.80;;;0.80;;
66485;SDS011;53303;47.476;8.084;2023-10-31T07:10:47;4.53;;;0.88;;
66485;SDS011;53303;47.476;8.084;2023-10-31T07:13:17;5.05;;;1.05;;
66485;SDS011;53303;47.476;8.084;2023-10-31T07:15:43;6.70;;;0.88;;
66485;SDS011;53303;47.476;8.084;2023-10-31T07:18:08;6.43;;;0.90;;
66485;SDS011;53303;47.476;8.084;2023-10-31T07:20:34;2.60;;;0.70;;
66485;SDS011;53303;47.476;8.084;2023-10-31T07:22:59;6.45;;;1.10;;
66485;SDS011;53303;47.476;8.084;2023-10-31T07:25:27;5.57;;;0.95;;
66485;SDS011;53303;47.476;8.084;2023-10-31T07:27:53;7.38;;;1.38;;
66485;SDS011;53303;47.476;8.084;2023-10-31T07:30:18;8.73;;;1.38;;
66485;SDS011;53303;47.476;8.084;2023-10-31T07:32:44;7.07;;;1.10;;
66485;SDS011;53303;47.476;8.084;2023-10-31T07:35:10;12.45;;;1.60;;
66485;SDS011;53303;47.476;8.084;2023-10-31T07:37:35;9.40;;;1.02;;
66485;SDS011;53303;47.476;8.084;2023-10-31T07:40:03;8.70;;;1.30;;
66485;SDS011;53303;47.476;8.084;2023-10-31T07:42:31;9.63;;;1.23;;
66485;SDS011;53303;47.476;8.084;2023-10-31T07:44:58;9.02;;;1.17;;
66485;SDS011;53303;47.476;8.084;2023-10-31T07:47:24;7.68;;;1.13;;
66485;SDS011;53303;47.476;8.084;2023-10-31T07:49:49;5.55;;;1.13;;
66485;SDS011;53303;47.476;8.084;2023-10-31T07:52:18;9.25;;;1.35;;
66485;SDS011;53303;47.476;8.084;2023-10-31T07:54:46;8.20;;;1.08;;
66485;SDS011;53303;47.476;8.084;2023-10-31T07:57:11;5.22;;;1.15;;
66485;SDS011;53303;47.476;8.084;2023-10-31T07:59:37;3.22;;;1.00;;
66485;SDS011;53303;47.476;8.084;2023-10-31T08:02:02;5.93;;;1.10;;
66485;SDS011;53303;47.476;8.084;2023-10-31T08:04:28;4.80;;;0.93;;
66485;SDS011;53303;47.476;8.084;2023-10-31T08:06:55;7.85;;;1.23;;
66485;SDS011;53303;47.476;8.084;2023-10-31T08:09:20;4.20;;;0.98;;
66485;SDS011;53303;47.476;8.084;2023-10-31T08:11:46;6.25;;;1.20;;
66485;SDS011;53303;47.476;8.084;2023-10-31T08:14:11;6.30;;;1.00;;
66485;SDS011;53303;47.476;8.084;2023-10-31T08:16:40;5.00;;;0.93;;
66485;SDS011;53303;47.476;8.084;2023-10-31T08:19:09;4.82;;;1.05;;
66485;SDS011;53303;47.476;8.084;2023-10-31T08:21:34;4.68;;;1.00;;
66485;SDS011;53303;47.476;8.084;2023-10-31T08:24:03;4.80;;;0.95;;
66485;SDS011;53303;47.476;8.084;2023-10-31T08:26:32;3.03;;;0.90;;
66485;SDS011;53303;47.476;8.084;2023-10-31T08:28:58;5.43;;;0.80;;
66485;SDS011;53303;47.476;8.084;2023-10-31T08:31:23;5.18;;;1.35;;
66485;SDS011;53303;47.476;8.084;2023-10-31T08:33:49;2.92;;;0.80;;
66485;SDS011;53303;47.476;8.084;2023-10-31T08:36:17;4.40;;;0.80;;
66485;SDS011;53303;47.476;8.084;2023-10-31T08:38:42;3.55;;;0.80;;
66485;SDS011;53303;47.476;8.084;2023-10-31T08:41:08;4.40;;;0.80;;
66485;SDS011;53303;47.476;8.084;2023-10-31T08:43:33;2.75;;;0.70;;
66485;SDS011;53303;47.476;8.084;2023-10-31T08:46:02;3.08;;;0.85;;
66485;SDS011;53303;47.476;8.084;2023-10-31T08:48:27;3.67;;;0.80;;
66485;SDS011;53303;47.476;8.084;2023-10-31T08:50:55;1.60;;;0.73;;
66485;SDS011;53303;47.476;8.084;2023-10-31T08:53:20;1.77;;;0.73;;
66485;SDS011;53303;47.476;8.084;2023-10-31T08:55:46;3.50;;;0.90;;
66485;SDS011;53303;47.476;8.084;2023-10-31T08:58:12;3.85;;;0.93;;
66485;SDS011;53303;47.476;8.084;2023-10-31T09:00:38;3.72;;;0.68;;
66485;SDS011;53303;47.476;8.084;2023-10-31T09:03:06;2.42;;;0.60;;
66485;SDS011;53303;47.476;8.084;2023-10-31T09:05:31;2.60;;;0.70;;
66485;SDS011;53303;47.476;8.084;2023-10-31T09:07:57;1.67;;;0.70;;
66485;SDS011;53303;47.476;8.084;2023-10-31T09:10:22;2.67;;;0.80;;
66485;SDS011;53303;47.476;8.084;2023-10-31T09:12:50;3.38;;;1.00;;
66485;SDS011;53303;47.476;8.084;2023-10-31T09:15:19;2.92;;;0.82;;
66485;SDS011;53303;47.476;8.084;2023-10-31T09:17:46;3.05;;;0.70;;
66485;SDS011;53303;47.476;8.084;2023-10-31T09:20:12;3.15;;;0.55;;
66485;SDS011;53303;47.476;8.084;2023-10-31T09:22:38;3.83;;;0.77;;
66485;SDS011;53303;47.476;8.084;2023-10-31T09:25:03;2.20;;;0.80;;
66485;SDS011;53303;47.476;8.084;2023-10-31T09:27:29;3.22;;;0.60;;
66485;SDS011;53303;47.476;8.084;2023-10-31T09:29:55;2.10;;;0.73;;
66485;SDS011;53303;47.476;8.084;2023-10-31T09:32:20;4.55;;;0.80;;
66485;SDS011;53303;47.476;8.084;2023-10-31T09:34:45;3.42;;;0.80;;
66485;SDS011;53303;47.476;8.084;2023-10-31T09:37:11;3.28;;;0.90;;
66485;SDS011;53303;47.476;8.084;2023-10-31T09:39:36;2.85;;;0.70;;
66485;SDS011;53303;47.476;8.084;2023-10-31T09:42:04;3.70;;;0.70;;
66485;SDS011;53303;47.476;8.084;2023-10-31T09:44:30;3.33;;;0.57;;
66485;SDS011;53303;47.476;8.084;2023-10-31T09:46:55;3.55;;;0.90;;
66485;SDS011;53303;47.476;8.084;2023-10-31T09:49:25;2.90;;;0.80;;
66485;SDS011;53303;47.476;8.084;2023-10-31T09:51:51;2.75;;;0.73;;
66485;SDS011;53303;47.476;8.084;2023-10-31T09:54:19;2.97;;;0.70;;
66485;SDS011;53303;47.476;8.084;2023-10-31T09:56:46;3.88;;;0.75;;
66485;SDS011;53303;47.476;8.084;2023-10-31T09:59:13;1.95;;;0.70;;
66485;SDS011;53303;47.476;8.084;2023-10-31T10:01:39;2.45;;;0.70;;
66485;SDS011;53303;47.476;8.084;2023-10-31T10:04:05;1.92;;;0.60;;
66485;SDS011;53303;47.476;8.084;2023-10-31T10:06:31;2.55;;;0.70;;
66485;SDS011;53303;47.476;8.084;2023-10-31T10:08:59;1.77;;;0.60;;
66485;SDS011;53303;47.476;8.084;2023-10-31T10:11:24;3.20;;;0.70;;
66485;SDS011;53303;47.476;8.084;2023-10-31T10:13:53;2.25;;;0.70;;
66485;SDS011;53303;47.476;8.084;2023-10-31T10:16:41;3.80;;;0.80;;
66485;SDS011;53303;47.476;8.084;2023-10-31T10:19:24;3.13;;;0.80;;
66485;SDS011;53303;47.476;8.084;2023-10-31T10:21:54;2.28;;;0.50;;
66485;SDS011;53303;47.476;8.084;2023-10-31T10:24:21;1.73;;;0.65;;
66485;SDS011;53303;47.476;8.084;2023-10-31T10:26:49;2.58;;;0.60;;
66485;SDS011;53303;47.476;8.084;2023-10-31T10:29:16;4.55;;;0.80;;
66485;SDS011;53303;47.476;8.084;2023-10-31T10:31:42;1.70;;;0.70;;
66485;SDS011;53303;47.476;8.084;2023-10-31T10:34:10;2.70;;;0.82;;
66485;SDS011;53303;47.476;8.084;2023-10-31T10:36:38;2.53;;;0.70;;
66485;SDS011;53303;47.476;8.084;2023-10-31T10:39:04;3.05;;;0.63;;
66485;SDS011;53303;47.476;8.084;2023-10-31T10:41:32;2.95;;;0.68;;
66485;SDS011;53303;47.476;8.084;2023-10-31T10:44:06;4.30;;;0.75;;
66485;SDS011;53303;47.476;8.084;2023-10-31T10:46:35;2.70;;;0.80;;
66485;SDS011;53303;47.476;8.084;2023-10-31T10:49:04;1.35;;;0.60;;
66485;SDS011;53303;47.476;8.084;2023-10-31T10:51:53;2.40;;;0.70;;
66485;SDS011;53303;47.476;8.084;2023-10-31T10:57:24;1.90;;;0.70;;
66485;SDS011;53303;47.476;8.084;2023-10-31T11:00:04;5.20;;;0.70;;
66485;SDS011;53303;47.476;8.084;2023-10-31T11:02:33;2.42;;;0.65;;
66485;SDS011;53303;47.476;8.084;2023-10-31T11:05:01;2.92;;;0.70;;
66485;SDS011;53303;47.476;8.084;2023-10-31T11:07:32;2.63;;;0.80;;
66485;SDS011;53303;47.476;8.084;2023-10-31T11:10:01;4.07;;;0.80;;
66485;SDS011;53303;47.476;8.084;2023-10-31T11:12:31;1.40;;;0.47;;
66485;SDS011;53303;47.476;8.084;2023-10-31T11:15:02;1.52;;;0.60;;
66485;SDS011;53303;47.476;8.084;2023-10-31T11:17:39;4.90;;;0.73;;
66485;SDS011;53303;47.476;8.084;2023-10-31T11:20:09;1.73;;;0.50;;
66485;SDS011;53303;47.476;8.084;2023-10-31T11:22:37;2.55;;;0.63;;
66485;SDS011;53303;47.476;8.084;2023-10-31T11:25:08;2.08;;;0.60;;
66485;SDS011;53303;47.476;8.084;2023-10-31T11:27:34;2.30;;;0.70;;
66485;SDS011;53303;47.476;8.084;2023-10-31T11:30:19;4.50;;;0.80;;
66485;SDS011;53303;47.476;8.084;2023-10-31T11:32:53;5.63;;;0.90;;
66485;SDS011;53303;47.476;8.084;2023-10-31T11:35:19;3.58;;;0.73;;
66485;SDS011;53303;47.476;8.084;2023-10-31T11:37:50;2.95;;;0.85;;
66485;SDS011;53303;47.476;8.084;2023-10-31T11:40:28;1.13;;;0.65;;
66485;SDS011;53303;47.476;8.084;2023-10-31T11:42:57;1.85;;;0.57;;
66485;SDS011;53303;47.476;8.084;2023-10-31T11:47:59;2.60;;;0.60;;
66485;SDS011;53303;47.476;8.084;2023-10-31T11:50:25;2.10;;;0.60;;
66485;SDS011;53303;47.476;8.084;2023-10-31T11:55:44;1.27;;;0.50;;
66485;SDS011;53303;47.476;8.084;2023-10-31T11:58:16;1.38;;;0.70;;
66485;SDS011;53303;47.476;8.084;2023-10-31T12:00:49;2.67;;;0.60;;
66485;SDS011;53303;47.476;8.084;2023-10-31T12:03:16;1.38;;;0.57;;
66485;SDS011;53303;47.476;8.084;2023-10-31T12:06:04;2.70;;;0.77;;
66485;SDS011;53303;47.476;8.084;2023-10-31T12:08:30;2.35;;;0.75;;
66485;SDS011;53303;47.476;8.084;2023-10-31T12:11:10;3.75;;;0.60;;
66485;SDS011;53303;47.476;8.084;2023-10-31T12:13:41;1.48;;;0.50;;
66485;SDS011;53303;47.476;8.084;2023-10-31T12:16:17;2.35;;;0.65;;
66485;SDS011;53303;47.476;8.084;2023-10-31T12:18:43;2.65;;;0.50;;
66485;SDS011;53303;47.476;8.084;2023-10-31T12:21:08;1.75;;;0.50;;
66485;SDS011;53303;47.476;8.084;2023-10-31T12:23:36;2.70;;;0.57;;
66485;SDS011;53303;47.476;8.084;2023-10-31T12:26:01;3.40;;;0.70;;
66485;SDS011;53303;47.476;8.084;2023-10-31T12:28:27;2.42;;;0.60;;
66485;SDS011;53303;47.476;8.084;2023-10-31T12:30:53;1.00;;;0.40;;
66485;SDS011;53303;47.476;8.084;2023-10-31T12:33:21;1.05;;;0.40;;
66485;SDS011;53303;47.476;8.084;2023-10-31T12:35:50;2.25;;;0.70;;
66485;SDS011;53303;47.476;8.084;2023-10-31T12:38:17;1.65;;;0.50;;
66485;SDS011;53303;47.476;8.084;2023-10-31T12:40:43;31.00;;;2.13;;
66485;SDS011;53303;47.476;8.084;2023-10-31T12:43:09;1.55;;;0.45;;
66485;SDS011;53303;47.476;8.084;2023-10-31T12:45:37;3.10;;;0.70;;
66485;SDS011;53303;47.476;8.084;2023-10-31T12:48:07;2.78;;;0.80;;
66485;SDS011;53303;47.476;8.084;2023-10-31T12:50:34;3.92;;;0.80;;
66485;SDS011;53303;47.476;8.084;2023-10-31T12:53:03;3.92;;;0.60;;
66485;SDS011;53303;47.476;8.084;2023-10-31T12:55:29;6.80;;;0.70;;
66485;SDS011;53303;47.476;8.084;2023-10-31T12:57:56;3.45;;;0.80;;
66485;SDS011;53303;47.476;8.084;2023-10-31T13:00:34;7.18;;;0.80;;
66485;SDS011;53303;47.476;8.084;2023-10-31T13:03:09;5.20;;;0.75;;
66485;SDS011;53303;47.476;8.084;2023-10-31T13:05:36;11.25;;;0.82;;
66485;SDS011;53303;47.476;8.084;2023-10-31T13:08:03;4.22;;;0.73;;
66485;SDS011;53303;47.476;8.084;2023-10-31T13:10:30;5.47;;;1.00;;
66485;SDS011;53303;47.476;8.084;2023-10-31T13:12:57;7.63;;;0.80;;
66485;SDS011;53303;47.476;8.084;2023-10-31T13:15:23;6.60;;;0.90;;
66485;SDS011;53303;47.476;8.084;2023-10-31T13:17:49;55.75;;;4.32;;
66485;SDS011;53303;47.476;8.084;2023-10-31T13:20:17;71.82;;;7.30;;
66485;SDS011;53303;47.476;8.084;2023-10-31T13:22:48;105.47;;;9.43;;
66485;SDS011;53303;47.476;8.084;2023-10-31T13:25:16;80.57;;;7.57;;
66485;SDS011;53303;47.476;8.084;2023-10-31T13:27:47;77.10;;;6.65;;
66485;SDS011;53303;47.476;8.084;2023-10-31T13:30:16;60.40;;;6.35;;
66485;SDS011;53303;47.476;8.084;2023-10-31T13:32:45;52.90;;;5.07;;
66485;SDS011;53303;47.476;8.084;2023-10-31T13:35:13;51.50;;;5.22;;
66485;SDS011;53303;47.476;8.084;2023-10-31T13:37:40;44.65;;;4.43;;
66485;SDS011;53303;47.476;8.084;2023-10-31T13:40:07;46.75;;;4.82;;
66485;SDS011;53303;47.476;8.084;2023-10-31T13:42:36;29.30;;;2.72;;
66485;SDS011;53303;47.476;8.084;2023-10-31T13:45:05;12.52;;;1.48;;
66485;SDS011;53303;47.476;8.084;2023-10-31T13:47:33;9.95;;;1.70;;
66485;SDS011;53303;47.476;8.084;2023-10-31T13:50:01;13.73;;;2.25;;
66485;SDS011;53303;47.476;8.084;2023-10-31T13:52:26;20.35;;;2.53;;
66485;SDS011;53303;47.476;8.084;2023-10-31T13:54:54;76.43;;;9.48;;
66485;SDS011;53303;47.476;8.084;2023-10-31T13:57:22;226.93;;;20.95;;
66485;SDS011;53303;47.476;8.084;2023-10-31T13:59:49;148.13;;;14.52;;
66485;SDS011;53303;47.476;8.084;2023-10-31T14:02:15;145.82;;;12.50;;
66485;SDS011;53303;47.476;8.084;2023-10-31T14:04:41;166.05;;;15.02;;
66485;SDS011;53303;47.476;8.084;2023-10-31T14:07:07;154.10;;;14.23;;
66485;SDS011;53303;47.476;8.084;2023-10-31T14:09:32;152.43;;;14.23;;
66485;SDS011;53303;47.476;8.084;2023-10-31T14:11:58;104.30;;;10.02;;
66485;SDS011;53303;47.476;8.084;2023-10-31T14:14:24;111.47;;;9.88;;
66485;SDS011;53303;47.476;8.084;2023-10-31T14:16:49;85.70;;;8.55;;
66485;SDS011;53303;47.476;8.084;2023-10-31T14:19:14;73.35;;;7.72;;
66485;SDS011;53303;47.476;8.084;2023-10-31T14:21:42;82.82;;;7.47;;
66485;SDS011;53303;47.476;8.084;2023-10-31T14:24:08;77.18;;;8.52;;
66485;SDS011;53303;47.476;8.084;2023-10-31T14:26:36;57.83;;;6.28;;
66485;SDS011;53303;47.476;8.084;2023-10-31T14:29:03;54.55;;;5.72;;
66485;SDS011;53303;47.476;8.084;2023-10-31T14:31:29;55.22;;;5.50;;
66485;SDS011;53303;47.476;8.084;2023-10-31T14:33:54;47.33;;;4.93;;
66485;SDS011;53303;47.476;8.084;2023-10-31T14:36:20;49.85;;;5.50;;
66485;SDS011;53303;47.476;8.084;2023-10-31T14:38:45;64.90;;;5.72;;
66485;SDS011;53303;47.476;8.084;2023-10-31T14:41:11;36.90;;;4.40;;
66485;SDS011;53303;47.476;8.084;2023-10-31T14:43:36;34.28;;;4.30;;
66485;SDS011;53303;47.476;8.084;2023-10-31T14:46:02;30.20;;;3.88;;
66485;SDS011;53303;47.476;8.084;2023-10-31T14:48:28;29.50;;;3.35;;
66485;SDS011;53303;47.476;8.084;2023-10-31T14:50:55;17.27;;;2.28;;
66485;SDS011;53303;47.476;8.084;2023-10-31T14:53:22;27.85;;;2.45;;